sensor_id;sensor_type;location;lat;lon;timestamp;temperature;humidity
26342;DHT22;14054;50.108;8.640;2023-10-19T00:01:49;10.60;99.90
26342;DHT22;14054;50.108;8.640;2023-10-19T00:04:15;10.70;99.90
26342;DHT22;14054;50.108;8.640;2023-10-19T00:06:40;10.70;99.90
26342;DHT22;14054;50.108;8.640;2023-10-19T00:09:06;10.70;99.90
26342;DHT22;14054;50.108;8.640;2023-10-19T00:11:36;10.70;99.90
26342;DHT22;14054;50.108;8.640;2023-10-19T00:14:06;10.70;99.90
26342;DHT22;14054;50.108;8.640;2023-10-19T00:16:41;10.70;99.90
26342;DHT22;14054;50.108;8.640;2023-10-19T00:19:09;10.70;99.90
26342;DHT22;14054;50.108;8.640;2023-10-19T00:21:35;10.70;99.90
26342;DHT22;14054;50.108;8.640;2023-10-19T00:24:17;10.70;99.90
26342;DHT22;14054;50.108;8.640;2023-10-19T00:26:43;10.70;99.90
26342;DHT22;14054;50.108;8.640;2023-10-19T00:29:09;10.80;99.90
26342;DHT22;14054;50.108;8.640;2023-10-19T00:31:58;10.70;99.90
26342;DHT22;14054;50.108;8.640;2023-10-19T00:34:25;10.80;99.90
26342;DHT22;14054;50.108;8.640;2023-10-19T00:36:51;10.70;99.90
26342;DHT22;14054;50.108;8.640;2023-10-19T00:39:17;10.70;99.90
26342;DHT22;14054;50.108;8.640;2023-10-19T00:41:49;10.70;99.90
26342;DHT22;14054;50.108;8.640;2023-10-19T00:44:16;10.70;99.90
26342;DHT22;14054;50.108;8.640;2023-10-19T00:46:43;10.70;99.90
26342;DHT22;14054;50.108;8.640;2023-10-19T00:49:13;10.70;99.90
26342;DHT22;14054;50.108;8.640;2023-10-19T00:51:42;10.80;99.90
26342;DHT22;14054;50.108;8.640;2023-10-19T00:54:27;10.80;99.90
26342;DHT22;14054;50.108;8.640;2023-10-19T00:57:05;10.80;99.90
26342;DHT22;14054;50.108;8.640;2023-10-19T00:59:34;10.80;99.90
26342;DHT22;14054;50.108;8.640;2023-10-19T01:02:09;10.80;99.90
26342;DHT22;14054;50.108;8.640;2023-10-19T01:04:55;10.90;99.90
26342;DHT22;14054;50.108;8.640;2023-10-19T01:07:47;10.90;99.90
26342;DHT22;14054;50.108;8.640;2023-10-19T01:10:18;10.80;99.90
26342;DHT22;14054;50.108;8.640;2023-10-19T01:12:47;10.90;99.90
26342;DHT22;14054;50.108;8.640;2023-10-19T01:15:16;10.90;99.90
26342;DHT22;14054;50.108;8.640;2023-10-19T01:17:50;10.90;99.90
26342;DHT22;14054;50.108;8.640;2023-10-19T01:23:00;11.00;99.90
26342;DHT22;14054;50.108;8.640;2023-10-19T01:31:28;10.90;99.90
26342;DHT22;14054;50.108;8.640;2023-10-19T01:33:54;10.90;99.90
26342;DHT22;14054;50.108;8.640;2023-10-19T01:36:25;10.90;99.90
26342;DHT22;14054;50.108;8.640;2023-10-19T01:38:55;11.00;99.90
26342;DHT22;14054;50.108;8.640;2023-10-19T01:41:22;11.00;99.90
26342;DHT22;14054;50.108;8.640;2023-10-19T01:43:51;11.00;99.90
26342;DHT22;14054;50.108;8.640;2023-10-19T01:46:21;11.00;99.90
26342;DHT22;14054;50.108;8.640;2023-10-19T01:48:48;11.00;99.90
26342;DHT22;14054;50.108;8.640;2023-10-19T01:51:21;11.10;99.90
26342;DHT22;14054;50.108;8.640;2023-10-19T01:53:48;11.00;99.90
26342;DHT22;14054;50.108;8.640;2023-10-19T01:56:15;11.00;99.90
26342;DHT22;14054;50.108;8.640;2023-10-19T01:58:43;11.00;99.90
26342;DHT22;14054;50.108;8.640;2023-10-19T02:01:09;11.00;99.90
26342;DHT22;14054;50.108;8.640;2023-10-19T02:03:38;11.10;99.90
26342;DHT22;14054;50.108;8.640;2023-10-19T02:06:08;11.10;99.90
26342;DHT22;14054;50.108;8.640;2023-10-19T02:08:45;11.10;99.90
26342;DHT22;14054;50.108;8.640;2023-10-19T02:11:13;11.10;99.90
26342;DHT22;14054;50.108;8.640;2023-10-19T02:13:46;11.10;99.90
26342;DHT22;14054;50.108;8.640;2023-10-19T02:16:16;11.10;99.90
26342;DHT22;14054;50.108;8.640;2023-10-19T02:18:42;11.10;99.90
26342;DHT22;14054;50.108;8.640;2023-10-19T02:21:08;11.10;99.90
26342;DHT22;14054;50.108;8.640;2023-10-19T02:23:38;11.10;99.90
26342;DHT22;14054;50.108;8.640;2023-10-19T02:26:04;11.10;99.90
26342;DHT22;14054;50.108;8.640;2023-10-19T02:28:30;11.10;99.90
26342;DHT22;14054;50.108;8.640;2023-10-19T02:31:03;11.10;99.90
26342;DHT22;14054;50.108;8.640;2023-10-19T02:33:47;11.10;99.90
26342;DHT22;14054;50.108;8.640;2023-10-19T02:36:17;11.10;99.90
26342;DHT22;14054;50.108;8.640;2023-10-19T02:38:45;11.10;99.90
26342;DHT22;14054;50.108;8.640;2023-10-19T02:41:15;11.10;99.90
26342;DHT22;14054;50.108;8.640;2023-10-19T02:43:41;11.10;99.90
26342;DHT22;14054;50.108;8.640;2023-10-19T02:46:11;11.10;99.90
26342;DHT22;14054;50.108;8.640;2023-10-19T02:48:38;11.10;99.90
26342;DHT22;14054;50.108;8.640;2023-10-19T02:51:04;11.10;99.90
26342;DHT22;14054;50.108;8.640;2023-10-19T02:53:37;11.10;99.90
26342;DHT22;14054;50.108;8.640;2023-10-19T02:56:10;11.10;99.90
26342;DHT22;14054;50.108;8.640;2023-10-19T02:58:36;11.10;99.90
26342;DHT22;14054;50.108;8.640;2023-10-19T03:01:02;11.00;99.90
26342;DHT22;14054;50.108;8.640;2023-10-19T03:03:27;11.10;99.90
26342;DHT22;14054;50.108;8.640;2023-10-19T03:05:56;11.20;99.90
26342;DHT22;14054;50.108;8.640;2023-10-19T03:08:24;11.20;99.90
26342;DHT22;14054;50.108;8.640;2023-10-19T03:10:51;11.20;99.90
26342;DHT22;14054;50.108;8.640;2023-10-19T03:13:29;11.10;99.90
26342;DHT22;14054;50.108;8.640;2023-10-19T03:15:54;11.20;99.90
26342;DHT22;14054;50.108;8.640;2023-10-19T03:18:20;11.20;99.90
26342;DHT22;14054;50.108;8.640;2023-10-19T03:20:45;11.20;99.90
26342;DHT22;14054;50.108;8.640;2023-10-19T03:23:11;11.20;99.90
26342;DHT22;14054;50.108;8.640;2023-10-19T03:25:39;11.20;99.90
26342;DHT22;14054;50.108;8.640;2023-10-19T03:28:23;11.20;99.90
26342;DHT22;14054;50.108;8.640;2023-10-19T03:30:51;11.20;99.90
26342;DHT22;14054;50.108;8.640;2023-10-19T03:33:17;11.20;99.90
26342;DHT22;14054;50.108;8.640;2023-10-19T03:35:43;11.20;99.90
26342;DHT22;14054;50.108;8.640;2023-10-19T03:38:09;11.20;99.90
26342;DHT22;14054;50.108;8.640;2023-10-19T03:40:44;11.20;99.90
26342;DHT22;14054;50.108;8.640;2023-10-19T03:43:18;11.30;99.90
26342;DHT22;14054;50.108;8.640;2023-10-19T03:45:47;11.30;99.90
26342;DHT22;14054;50.108;8.640;2023-10-19T03:48:18;11.30;99.90
26342;DHT22;14054;50.108;8.640;2023-10-19T03:50:50;11.30;99.90
26342;DHT22;14054;50.108;8.640;2023-10-19T03:53:18;11.30;99.90
26342;DHT22;14054;50.108;8.640;2023-10-19T03:55:43;11.30;99.90
26342;DHT22;14054;50.108;8.640;2023-10-19T03:58:09;11.30;99.90
26342;DHT22;14054;50.108;8.640;2023-10-19T04:00:37;11.30;99.90
26342;DHT22;14054;50.108;8.640;2023-10-19T04:03:03;11.30;99.90
26342;DHT22;14054;50.108;8.640;2023-10-19T04:05:28;11.30;99.90
26342;DHT22;14054;50.108;8.640;2023-10-19T04:07:54;11.40;99.90
26342;DHT22;14054;50.108;8.640;2023-10-19T04:10:26;11.30;99.90
26342;DHT22;14054;50.108;8.640;2023-10-19T04:13:01;11.40;99.90
26342;DHT22;14054;50.108;8.640;2023-10-19T04:15:27;11.40;99.90
26342;DHT22;14054;50.108;8.640;2023-10-19T04:17:54;11.40;99.90
26342;DHT22;14054;50.108;8.640;2023-10-19T04:20:21;11.40;99.90
26342;DHT22;14054;50.108;8.640;2023-10-19T04:22:54;11.40;99.90
26342;DHT22;14054;50.108;8.640;2023-10-19T04:25:20;11.40;99.90
26342;DHT22;14054;50.108;8.640;2023-10-19T04:27:47;11.40;99.90
26342;DHT22;14054;50.108;8.640;2023-10-19T04:30:15;11.40;99.90
26342;DHT22;14054;50.108;8.640;2023-10-19T04:32:47;11.40;99.90
26342;DHT22;14054;50.108;8.640;2023-10-19T04:35:13;11.40;99.90
26342;DHT22;14054;50.108;8.640;2023-10-19T04:37:40;11.50;99.90
26342;DHT22;14054;50.108;8.640;2023-10-19T04:40:10;11.50;99.90
26342;DHT22;14054;50.108;8.640;2023-10-19T04:42:37;11.50;99.90
26342;DHT22;14054;50.108;8.640;2023-10-19T04:45:03;11.50;99.90
26342;DHT22;14054;50.108;8.640;2023-10-19T04:47:31;11.60;99.90
26342;DHT22;14054;50.108;8.640;2023-10-19T04:49:56;11.60;99.90
26342;DHT22;14054;50.108;8.640;2023-10-19T04:52:22;11.60;99.90
26342;DHT22;14054;50.108;8.640;2023-10-19T04:54:47;11.60;99.90
26342;DHT22;14054;50.108;8.640;2023-10-19T04:57:13;11.60;99.90
26342;DHT22;14054;50.108;8.640;2023-10-19T04:59:38;11.60;99.90
26342;DHT22;14054;50.108;8.640;2023-10-19T05:02:04;11.60;99.90
26342;DHT22;14054;50.108;8.640;2023-10-19T05:04:31;11.60;99.90
26342;DHT22;14054;50.108;8.640;2023-10-19T05:06:56;11.60;99.90
26342;DHT22;14054;50.108;8.640;2023-10-19T05:09:22;11.60;99.90
26342;DHT22;14054;50.108;8.640;2023-10-19T05:11:47;11.60;99.90
26342;DHT22;14054;50.108;8.640;2023-10-19T05:14:13;11.70;99.90
26342;DHT22;14054;50.108;8.640;2023-10-19T05:16:39;11.70;99.90
26342;DHT22;14054;50.108;8.640;2023-10-19T05:19:05;11.70;99.90
26342;DHT22;14054;50.108;8.640;2023-10-19T05:21:31;11.70;99.90
26342;DHT22;14054;50.108;8.640;2023-10-19T05:23:56;11.70;99.90
26342;DHT22;14054;50.108;8.640;2023-10-19T05:26:22;11.70;99.90
26342;DHT22;14054;50.108;8.640;2023-10-19T05:28:48;11.70;99.90
26342;DHT22;14054;50.108;8.640;2023-10-19T05:31:13;11.70;99.90
26342;DHT22;14054;50.108;8.640;2023-10-19T05:33:40;11.70;99.90
26342;DHT22;14054;50.108;8.640;2023-10-19T05:36:06;11.70;99.90
26342;DHT22;14054;50.108;8.640;2023-10-19T05:38:31;11.80;99.90
26342;DHT22;14054;50.108;8.640;2023-10-19T05:40:57;11.80;99.90
26342;DHT22;14054;50.108;8.640;2023-10-19T05:43:24;11.80;99.90
26342;DHT22;14054;50.108;8.640;2023-10-19T05:45:50;11.80;99.90
26342;DHT22;14054;50.108;8.640;2023-10-19T05:48:16;11.80;99.90
26342;DHT22;14054;50.108;8.640;2023-10-19T05:50:42;11.80;99.90
26342;DHT22;14054;50.108;8.640;2023-10-19T05:53:08;11.80;99.90
26342;DHT22;14054;50.108;8.640;2023-10-19T05:55:33;11.80;99.90
26342;DHT22;14054;50.108;8.640;2023-10-19T05:58:01;11.80;99.90
26342;DHT22;14054;50.108;8.640;2023-10-19T06:00:30;11.80;99.90
26342;DHT22;14054;50.108;8.640;2023-10-19T06:02:56;11.80;99.90
26342;DHT22;14054;50.108;8.640;2023-10-19T06:05:22;11.80;99.90
26342;DHT22;14054;50.108;8.640;2023-10-19T06:07:49;11.80;99.90
26342;DHT22;14054;50.108;8.640;2023-10-19T06:10:18;11.80;99.90
26342;DHT22;14054;50.108;8.640;2023-10-19T06:12:47;11.80;99.90
26342;DHT22;14054;50.108;8.640;2023-10-19T06:15:15;11.80;99.90
26342;DHT22;14054;50.108;8.640;2023-10-19T06:17:41;11.90;99.90
26342;DHT22;14054;50.108;8.640;2023-10-19T06:20:11;11.80;99.90
26342;DHT22;14054;50.108;8.640;2023-10-19T06:22:57;11.90;99.90
26342;DHT22;14054;50.108;8.640;2023-10-19T06:25:29;11.90;99.90
26342;DHT22;14054;50.108;8.640;2023-10-19T06:27:55;11.90;99.90
26342;DHT22;14054;50.108;8.640;2023-10-19T06:30:22;11.90;99.90
26342;DHT22;14054;50.108;8.640;2023-10-19T06:32:51;11.90;99.90
26342;DHT22;14054;50.108;8.640;2023-10-19T06:35:17;11.90;99.90
26342;DHT22;14054;50.108;8.640;2023-10-19T06:37:44;12.00;99.90
26342;DHT22;14054;50.108;8.640;2023-10-19T06:40:10;11.90;99.90
26342;DHT22;14054;50.108;8.640;2023-10-19T06:42:37;11.90;99.90
26342;DHT22;14054;50.108;8.640;2023-10-19T06:45:03;12.00;99.90
26342;DHT22;14054;50.108;8.640;2023-10-19T06:47:29;12.00;99.90
26342;DHT22;14054;50.108;8.640;2023-10-19T06:49:56;12.00;99.90
26342;DHT22;14054;50.108;8.640;2023-10-19T06:52:22;12.00;99.90
26342;DHT22;14054;50.108;8.640;2023-10-19T06:54:47;12.00;99.90
26342;DHT22;14054;50.108;8.640;2023-10-19T06:57:13;12.00;99.90
26342;DHT22;14054;50.108;8.640;2023-10-19T06:59:38;12.00;99.90
26342;DHT22;14054;50.108;8.640;2023-10-19T07:02:04;12.10;99.90
26342;DHT22;14054;50.108;8.640;2023-10-19T07:04:30;12.10;99.90
26342;DHT22;14054;50.108;8.640;2023-10-19T07:06:56;12.00;99.90
26342;DHT22;14054;50.108;8.640;2023-10-19T07:09:22;12.10;99.90
26342;DHT22;14054;50.108;8.640;2023-10-19T07:11:49;12.10;99.90
26342;DHT22;14054;50.108;8.640;2023-10-19T07:14:18;12.10;99.90
26342;DHT22;14054;50.108;8.640;2023-10-19T07:16:44;12.10;99.90
26342;DHT22;14054;50.108;8.640;2023-10-19T07:19:09;12.10;99.90
26342;DHT22;14054;50.108;8.640;2023-10-19T07:21:35;12.10;99.90
26342;DHT22;14054;50.108;8.640;2023-10-19T07:24:03;12.10;99.90
26342;DHT22;14054;50.108;8.640;2023-10-19T07:26:31;12.10;99.90
26342;DHT22;14054;50.108;8.640;2023-10-19T07:29:00;12.10;99.90
26342;DHT22;14054;50.108;8.640;2023-10-19T07:31:26;12.20;99.90
26342;DHT22;14054;50.108;8.640;2023-10-19T07:33:53;12.20;99.90
26342;DHT22;14054;50.108;8.640;2023-10-19T07:36:21;12.20;99.90
26342;DHT22;14054;50.108;8.640;2023-10-19T07:38:46;12.30;99.90
26342;DHT22;14054;50.108;8.640;2023-10-19T07:41:13;12.30;99.90
26342;DHT22;14054;50.108;8.640;2023-10-19T07:43:38;12.30;99.90
26342;DHT22;14054;50.108;8.640;2023-10-19T07:46:04;12.30;99.90
26342;DHT22;14054;50.108;8.640;2023-10-19T07:48:30;12.40;99.90
26342;DHT22;14054;50.108;8.640;2023-10-19T07:50:56;12.40;99.90
26342;DHT22;14054;50.108;8.640;2023-10-19T07:53:22;12.40;99.90
26342;DHT22;14054;50.108;8.640;2023-10-19T07:55:50;12.40;99.90
26342;DHT22;14054;50.108;8.640;2023-10-19T07:58:15;12.40;99.90
26342;DHT22;14054;50.108;8.640;2023-10-19T08:00:41;12.40;99.90
26342;DHT22;14054;50.108;8.640;2023-10-19T08:03:07;12.50;99.90
26342;DHT22;14054;50.108;8.640;2023-10-19T08:05:34;12.50;99.90
26342;DHT22;14054;50.108;8.640;2023-10-19T08:08:00;12.50;99.90
26342;DHT22;14054;50.108;8.640;2023-10-19T08:10:26;12.60;99.90
26342;DHT22;14054;50.108;8.640;2023-10-19T08:12:53;12.60;99.90
26342;DHT22;14054;50.108;8.640;2023-10-19T08:15:19;12.70;99.90
26342;DHT22;14054;50.108;8.640;2023-10-19T08:17:47;12.60;99.90
26342;DHT22;14054;50.108;8.640;2023-10-19T08:20:14;12.70;99.90
26342;DHT22;14054;50.108;8.640;2023-10-19T08:22:49;12.70;99.90
26342;DHT22;14054;50.108;8.640;2023-10-19T08:25:15;12.70;99.90
26342;DHT22;14054;50.108;8.640;2023-10-19T08:27:41;12.70;99.90
26342;DHT22;14054;50.108;8.640;2023-10-19T08:30:10;12.70;99.90
26342;DHT22;14054;50.108;8.640;2023-10-19T08:32:38;12.80;99.90
26342;DHT22;14054;50.108;8.640;2023-10-19T08:35:04;12.80;99.90
26342;DHT22;14054;50.108;8.640;2023-10-19T08:37:31;12.80;99.90
26342;DHT22;14054;50.108;8.640;2023-10-19T08:39:56;12.80;99.90
26342;DHT22;14054;50.108;8.640;2023-10-19T08:42:23;12.80;99.90
26342;DHT22;14054;50.108;8.640;2023-10-19T08:44:49;12.90;99.90
26342;DHT22;14054;50.108;8.640;2023-10-19T08:47:15;12.80;99.90
26342;DHT22;14054;50.108;8.640;2023-10-19T08:49:41;12.80;99.90
26342;DHT22;14054;50.108;8.640;2023-10-19T08:52:07;12.90;99.90
26342;DHT22;14054;50.108;8.640;2023-10-19T08:54:34;12.90;99.90
26342;DHT22;14054;50.108;8.640;2023-10-19T08:57:00;12.90;99.90
26342;DHT22;14054;50.108;8.640;2023-10-19T08:59:26;12.90;99.90
26342;DHT22;14054;50.108;8.640;2023-10-19T09:02:00;12.90;99.90
26342;DHT22;14054;50.108;8.640;2023-10-19T09:04:26;13.00;99.90
26342;DHT22;14054;50.108;8.640;2023-10-19T09:06:53;13.00;99.90
26342;DHT22;14054;50.108;8.640;2023-10-19T09:09:20;13.00;99.90
26342;DHT22;14054;50.108;8.640;2023-10-19T09:11:47;13.10;99.90
26342;DHT22;14054;50.108;8.640;2023-10-19T09:14:14;13.20;99.90
26342;DHT22;14054;50.108;8.640;2023-10-19T09:16:56;13.20;99.90
26342;DHT22;14054;50.108;8.640;2023-10-19T09:19:42;13.20;99.90
26342;DHT22;14054;50.108;8.640;2023-10-19T09:22:08;13.30;99.90
26342;DHT22;14054;50.108;8.640;2023-10-19T09:24:48;13.30;99.90
26342;DHT22;14054;50.108;8.640;2023-10-19T09:27:16;13.40;99.90
26342;DHT22;14054;50.108;8.640;2023-10-19T09:29:43;13.40;99.90
26342;DHT22;14054;50.108;8.640;2023-10-19T09:32:08;13.40;99.90
26342;DHT22;14054;50.108;8.640;2023-10-19T09:34:35;13.50;99.90
26342;DHT22;14054;50.108;8.640;2023-10-19T09:37:02;13.60;99.90
26342;DHT22;14054;50.108;8.640;2023-10-19T09:39:32;13.70;99.90
26342;DHT22;14054;50.108;8.640;2023-10-19T09:42:02;13.80;99.90
26342;DHT22;14054;50.108;8.640;2023-10-19T09:47:04;13.90;99.90
26342;DHT22;14054;50.108;8.640;2023-10-19T09:49:34;14.00;99.90
26342;DHT22;14054;50.108;8.640;2023-10-19T09:52:00;13.90;99.90
26342;DHT22;14054;50.108;8.640;2023-10-19T09:54:42;13.90;99.90
26342;DHT22;14054;50.108;8.640;2023-10-19T09:57:16;13.90;99.90
26342;DHT22;14054;50.108;8.640;2023-10-19T09:59:45;13.90;99.90
26342;DHT22;14054;50.108;8.640;2023-10-19T10:02:16;14.00;99.90
26342;DHT22;14054;50.108;8.640;2023-10-19T10:04:43;14.10;99.90
26342;DHT22;14054;50.108;8.640;2023-10-19T10:07:12;14.20;99.90
26342;DHT22;14054;50.108;8.640;2023-10-19T10:09:40;14.30;99.90
26342;DHT22;14054;50.108;8.640;2023-10-19T10:12:16;14.20;99.90
26342;DHT22;14054;50.108;8.640;2023-10-19T10:15:12;14.20;99.90
26342;DHT22;14054;50.108;8.640;2023-10-19T10:17:41;14.40;99.90
26342;DHT22;14054;50.108;8.640;2023-10-19T10:22:45;14.40;99.90
26342;DHT22;14054;50.108;8.640;2023-10-19T10:25:27;14.60;99.90
26342;DHT22;14054;50.108;8.640;2023-10-19T10:27:56;14.60;99.90
26342;DHT22;14054;50.108;8.640;2023-10-19T10:30:22;14.60;99.90
26342;DHT22;14054;50.108;8.640;2023-10-19T10:32:52;14.60;99.90
26342;DHT22;14054;50.108;8.640;2023-10-19T10:35:53;14.60;99.90
26342;DHT22;14054;50.108;8.640;2023-10-19T10:38:19;14.70;99.90
26342;DHT22;14054;50.108;8.640;2023-10-19T10:40:49;14.80;99.90
26342;DHT22;14054;50.108;8.640;2023-10-19T10:43:16;14.90;99.90
26342;DHT22;14054;50.108;8.640;2023-10-19T10:45:42;15.00;99.90
26342;DHT22;14054;50.108;8.640;2023-10-19T10:48:15;15.00;99.90
26342;DHT22;14054;50.108;8.640;2023-10-19T10:50:41;15.20;99.90
26342;DHT22;14054;50.108;8.640;2023-10-19T10:53:10;15.30;99.90
26342;DHT22;14054;50.108;8.640;2023-10-19T10:55:37;15.30;99.90
26342;DHT22;14054;50.108;8.640;2023-10-19T10:58:03;15.40;99.90
26342;DHT22;14054;50.108;8.640;2023-10-19T11:00:28;15.50;99.90
26342;DHT22;14054;50.108;8.640;2023-10-19T11:03:02;15.60;99.90
26342;DHT22;14054;50.108;8.640;2023-10-19T11:05:30;15.80;99.90
26342;DHT22;14054;50.108;8.640;2023-10-19T11:10:30;16.10;99.90
26342;DHT22;14054;50.108;8.640;2023-10-19T11:13:06;16.30;99.90
26342;DHT22;14054;50.108;8.640;2023-10-19T11:15:33;16.00;99.90
26342;DHT22;14054;50.108;8.640;2023-10-19T11:17:59;16.10;99.90
26342;DHT22;14054;50.108;8.640;2023-10-19T11:20:25;16.20;99.90
26342;DHT22;14054;50.108;8.640;2023-10-19T11:22:53;16.40;99.90
26342;DHT22;14054;50.108;8.640;2023-10-19T11:25:23;16.40;99.90
26342;DHT22;14054;50.108;8.640;2023-10-19T11:27:48;16.20;99.90
26342;DHT22;14054;50.108;8.640;2023-10-19T11:30:23;15.90;99.90
26342;DHT22;14054;50.108;8.640;2023-10-19T11:32:49;15.70;99.90
26342;DHT22;14054;50.108;8.640;2023-10-19T11:35:20;15.60;99.90
26342;DHT22;14054;50.108;8.640;2023-10-19T11:37:52;15.60;99.90
26342;DHT22;14054;50.108;8.640;2023-10-19T11:40:22;15.60;99.90
26342;DHT22;14054;50.108;8.640;2023-10-19T11:42:48;15.60;99.90
26342;DHT22;14054;50.108;8.640;2023-10-19T11:45:14;15.60;99.90
26342;DHT22;14054;50.108;8.640;2023-10-19T11:47:44;15.60;99.90
26342;DHT22;14054;50.108;8.640;2023-10-19T11:50:10;15.70;99.90
26342;DHT22;14054;50.108;8.640;2023-10-19T11:52:40;15.70;99.90
26342;DHT22;14054;50.108;8.640;2023-10-19T11:55:06;15.80;99.90
26342;DHT22;14054;50.108;8.640;2023-10-19T11:57:31;15.80;99.90
26342;DHT22;14054;50.108;8.640;2023-10-19T11:59:58;15.90;99.90
26342;DHT22;14054;50.108;8.640;2023-10-19T12:02:24;15.90;99.90
26342;DHT22;14054;50.108;8.640;2023-10-19T12:04:50;15.80;99.90
26342;DHT22;14054;50.108;8.640;2023-10-19T12:07:15;15.70;99.90
26342;DHT22;14054;50.108;8.640;2023-10-19T12:09:41;15.70;99.90
26342;DHT22;14054;50.108;8.640;2023-10-19T12:12:07;15.70;99.90
26342;DHT22;14054;50.108;8.640;2023-10-19T12:14:37;15.70;99.90
26342;DHT22;14054;50.108;8.640;2023-10-19T12:17:02;15.70;99.90
26342;DHT22;14054;50.108;8.640;2023-10-19T12:19:31;15.80;99.90
26342;DHT22;14054;50.108;8.640;2023-10-19T12:21:57;15.80;99.90
26342;DHT22;14054;50.108;8.640;2023-10-19T12:24:23;15.80;99.90
26342;DHT22;14054;50.108;8.640;2023-10-19T12:26:49;15.80;99.90
26342;DHT22;14054;50.108;8.640;2023-10-19T12:29:16;15.80;99.90
26342;DHT22;14054;50.108;8.640;2023-10-19T12:31:43;15.70;99.90
26342;DHT22;14054;50.108;8.640;2023-10-19T12:34:08;15.70;99.90
26342;DHT22;14054;50.108;8.640;2023-10-19T12:36:36;15.80;99.90
26342;DHT22;14054;50.108;8.640;2023-10-19T12:39:02;15.70;99.90
26342;DHT22;14054;50.108;8.640;2023-10-19T12:41:30;15.70;99.90
26342;DHT22;14054;50.108;8.640;2023-10-19T12:43:57;15.70;99.90
26342;DHT22;14054;50.108;8.640;2023-10-19T12:46:23;15.60;99.90
26342;DHT22;14054;50.108;8.640;2023-10-19T12:48:53;15.60;99.90
26342;DHT22;14054;50.108;8.640;2023-10-19T12:51:23;15.60;99.90
26342;DHT22;14054;50.108;8.640;2023-10-19T12:53:52;15.50;99.90
26342;DHT22;14054;50.108;8.640;2023-10-19T12:56:19;15.50;99.90
26342;DHT22;14054;50.108;8.640;2023-10-19T12:58:45;15.40;99.90
26342;DHT22;14054;50.108;8.640;2023-10-19T13:01:11;15.40;99.90
26342;DHT22;14054;50.108;8.640;2023-10-19T13:03:45;15.40;99.90
26342;DHT22;14054;50.108;8.640;2023-10-19T13:06:12;15.40;99.90
26342;DHT22;14054;50.108;8.640;2023-10-19T13:08:38;15.30;99.90
26342;DHT22;14054;50.108;8.640;2023-10-19T13:11:06;15.30;99.90
26342;DHT22;14054;50.108;8.640;2023-10-19T13:13:32;15.30;99.90
26342;DHT22;14054;50.108;8.640;2023-10-19T13:15:58;15.30;99.90
26342;DHT22;14054;50.108;8.640;2023-10-19T13:18:25;15.20;99.90
26342;DHT22;14054;50.108;8.640;2023-10-19T13:20:53;15.30;99.90
26342;DHT22;14054;50.108;8.640;2023-10-19T13:23:20;15.30;99.90
26342;DHT22;14054;50.108;8.640;2023-10-19T13:25:49;15.40;99.90
26342;DHT22;14054;50.108;8.640;2023-10-19T13:28:34;15.40;99.90
26342;DHT22;14054;50.108;8.640;2023-10-19T13:31:00;15.50;99.90
26342;DHT22;14054;50.108;8.640;2023-10-19T13:33:26;15.40;99.90
26342;DHT22;14054;50.108;8.640;2023-10-19T13:35:51;15.50;99.90
26342;DHT22;14054;50.108;8.640;2023-10-19T13:38:18;15.50;99.90
26342;DHT22;14054;50.108;8.640;2023-10-19T13:40:45;15.50;99.90
26342;DHT22;14054;50.108;8.640;2023-10-19T13:43:11;15.50;99.90
26342;DHT22;14054;50.108;8.640;2023-10-19T13:45:41;15.40;99.90
26342;DHT22;14054;50.108;8.640;2023-10-19T13:48:10;15.60;99.90
26342;DHT22;14054;50.108;8.640;2023-10-19T13:50:41;15.40;99.90
26342;DHT22;14054;50.108;8.640;2023-10-19T13:53:08;15.60;99.90
26342;DHT22;14054;50.108;8.640;2023-10-19T13:55:35;15.40;99.90
26342;DHT22;14054;50.108;8.640;2023-10-19T13:58:01;15.40;99.90
26342;DHT22;14054;50.108;8.640;2023-10-19T14:00:27;15.30;99.90
26342;DHT22;14054;50.108;8.640;2023-10-19T14:03:01;15.40;99.90
26342;DHT22;14054;50.108;8.640;2023-10-19T14:05:29;15.40;99.90
26342;DHT22;14054;50.108;8.640;2023-10-19T14:07:55;15.40;99.90
26342;DHT22;14054;50.108;8.640;2023-10-19T14:10:21;15.40;99.90
26342;DHT22;14054;50.108;8.640;2023-10-19T14:12:48;15.40;99.90
26342;DHT22;14054;50.108;8.640;2023-10-19T14:15:15;15.30;99.90
26342;DHT22;14054;50.108;8.640;2023-10-19T14:17:41;15.40;99.90
26342;DHT22;14054;50.108;8.640;2023-10-19T14:20:08;15.30;99.90
26342;DHT22;14054;50.108;8.640;2023-10-19T14:22:48;15.30;99.90
26342;DHT22;14054;50.108;8.640;2023-10-19T14:25:14;15.30;99.90
26342;DHT22;14054;50.108;8.640;2023-10-19T14:27:41;15.40;99.90
26342;DHT22;14054;50.108;8.640;2023-10-19T14:30:08;15.60;99.90
26342;DHT22;14054;50.108;8.640;2023-10-19T14:32:37;15.40;99.90
26342;DHT22;14054;50.108;8.640;2023-10-19T14:35:02;15.00;99.90
26342;DHT22;14054;50.108;8.640;2023-10-19T14:37:31;15.20;99.90
26342;DHT22;14054;50.108;8.640;2023-10-19T14:39:56;15.40;99.90
26342;DHT22;14054;50.108;8.640;2023-10-19T14:42:24;15.50;99.90
26342;DHT22;14054;50.108;8.640;2023-10-19T14:44:49;15.60;99.90
26342;DHT22;14054;50.108;8.640;2023-10-19T14:47:15;15.00;99.90
26342;DHT22;14054;50.108;8.640;2023-10-19T14:49:40;15.20;99.90
26342;DHT22;14054;50.108;8.640;2023-10-19T14:52:06;15.20;99.90
26342;DHT22;14054;50.108;8.640;2023-10-19T14:54:32;15.50;99.90
26342;DHT22;14054;50.108;8.640;2023-10-19T14:56:57;15.00;99.90
26342;DHT22;14054;50.108;8.640;2023-10-19T14:59:23;15.40;99.90
26342;DHT22;14054;50.108;8.640;2023-10-19T15:01:50;15.20;99.90
26342;DHT22;14054;50.108;8.640;2023-10-19T15:04:17;15.30;99.90
26342;DHT22;14054;50.108;8.640;2023-10-19T15:06:42;15.30;99.90
26342;DHT22;14054;50.108;8.640;2023-10-19T15:09:08;15.20;99.90
26342;DHT22;14054;50.108;8.640;2023-10-19T15:11:40;15.30;99.90
26342;DHT22;14054;50.108;8.640;2023-10-19T15:14:05;15.40;99.90
26342;DHT22;14054;50.108;8.640;2023-10-19T15:16:31;15.60;99.90
26342;DHT22;14054;50.108;8.640;2023-10-19T15:18:56;15.60;99.90
26342;DHT22;14054;50.108;8.640;2023-10-19T15:21:22;15.30;99.90
26342;DHT22;14054;50.108;8.640;2023-10-19T15:23:47;15.40;99.90
26342;DHT22;14054;50.108;8.640;2023-10-19T15:26:19;15.40;99.90
26342;DHT22;14054;50.108;8.640;2023-10-19T15:28:45;15.70;99.90
26342;DHT22;14054;50.108;8.640;2023-10-19T15:31:10;15.40;99.90
26342;DHT22;14054;50.108;8.640;2023-10-19T15:33:36;15.40;99.90
26342;DHT22;14054;50.108;8.640;2023-10-19T15:36:01;15.20;99.90
26342;DHT22;14054;50.108;8.640;2023-10-19T15:38:27;15.40;99.90
26342;DHT22;14054;50.108;8.640;2023-10-19T15:40:52;15.60;99.90
26342;DHT22;14054;50.108;8.640;2023-10-19T15:43:17;15.60;99.90
26342;DHT22;14054;50.108;8.640;2023-10-19T15:45:43;15.60;99.90
26342;DHT22;14054;50.108;8.640;2023-10-19T15:48:10;15.40;99.90
26342;DHT22;14054;50.108;8.640;2023-10-19T15:50:39;15.70;99.90
26342;DHT22;14054;50.108;8.640;2023-10-19T15:53:08;15.60;99.90